Portada
METAR-TAF:

METAR-TAF

Aeroports :

Ciutat del Cap, Sud-àfrica

latitud: 33-59S, longitud: 018-36E, altitud: 42 m

Observació

L'informe es va fer fa 1 hora i 0 minuts, a les 08:00 UTC
Vent 4 kt del Nord-Est
Temperatura 16°C
Humitat 88%
Pressió 1024 hPa
Visibilitat 10 km o més
Cel ennuvolat a una alçada de 3000 ft

METAR: FACT 060800Z 04004KT 9999 BKN030 16/14 Q1024 NOSIG

Hora: 11:00 (09:00 UTC)

Pronòstic

L'informe es va fer fa 5 hores i 0 minuts, a les 04:00 UTC
Pronòstic vàlid del 06 a les 06 UTC al 07 a les 12 UTC
Vent 3 kt amb direcció variable
Visibilitat 10 km o més
Escasses núvols a una alçada de 1500 ft
Probabilitat 30% :
Temporalment
l' 07 a les 02 UTC al 07 a les 07 UTC
Visibilitat: 3500 m
boirina

TAF: FACT 060400Z 0606/0712 VRB03KT 9999 FEW015 TX22/0712Z TN12/0606Z PROB30 TEMPO 0702/0707 3500 BR NSC

Observacions i pronòstics meteorològics de més de 4000 aeroports (METAR i TAF).

Les estacions disponibles són els punts grocs i vermells al mapa.

Posi el ratolí al punt desitjat per veure el nom de l'estació.

Feu clic per veure les observacions i els pronòstics meteorològics.

Per canviar el mapa: feu clic els botons verds amb una creu de color negre per apropar; al botó verd amb un guió per allunyar la imatge; o en les fletxes verdes per a mapes adjacents.


METAR-TAF: